sensor_id;sensor_type;location;lat;lon;timestamp;pressure;altitude;pressure_sealevel;temperature;humidity
76594;BME280;65482;50.240;14.302;2023-08-06T00:02:20;98741.38;;;16.12;78.93
76594;BME280;65482;50.240;14.302;2023-08-06T00:04:45;98744.84;;;16.12;79.05
76594;BME280;65482;50.240;14.302;2023-08-06T00:07:11;98741.13;;;16.13;78.82
76594;BME280;65482;50.240;14.302;2023-08-06T00:09:37;98735.81;;;16.13;78.93
76594;BME280;65482;50.240;14.302;2023-08-06T00:12:02;98736.06;;;16.12;79.18
76594;BME280;65482;50.240;14.302;2023-08-06T00:14:28;98729.88;;;16.11;79.38
76594;BME280;65482;50.240;14.302;2023-08-06T00:16:54;98732.56;;;16.11;79.25
76594;BME280;65482;50.240;14.302;2023-08-06T00:19:19;98736.66;;;16.14;79.10
76594;BME280;65482;50.240;14.302;2023-08-06T00:21:45;98738.06;;;16.16;78.94
76594;BME280;65482;50.240;14.302;2023-08-06T00:24:10;98734.59;;;16.16;78.87
76594;BME280;65482;50.240;14.302;2023-08-06T00:26:36;98732.72;;;16.16;78.53
76594;BME280;65482;50.240;14.302;2023-08-06T00:29:01;98726.81;;;16.14;78.58
76594;BME280;65482;50.240;14.302;2023-08-06T00:31:27;98727.41;;;16.16;78.53
76594;BME280;65482;50.240;14.302;2023-08-06T00:33:52;98721.28;;;16.16;78.43
76594;BME280;65482;50.240;14.302;2023-08-06T00:36:18;98706.34;;;16.15;78.05
76594;BME280;65482;50.240;14.302;2023-08-06T00:38:43;98695.53;;;16.09;78.24
76594;BME280;65482;50.240;14.302;2023-08-06T00:41:09;98680.00;;;16.06;78.44
76594;BME280;65482;50.240;14.302;2023-08-06T00:43:34;98680.22;;;16.05;78.25
76594;BME280;65482;50.240;14.302;2023-08-06T00:46:00;98672.22;;;16.05;78.29
76594;BME280;65482;50.240;14.302;2023-08-06T00:48:26;98667.72;;;16.05;78.13
76594;BME280;65482;50.240;14.302;2023-08-06T00:50:52;98676.75;;;16.04;77.85
76594;BME280;65482;50.240;14.302;2023-08-06T00:53:18;98677.16;;;16.01;78.00
76594;BME280;65482;50.240;14.302;2023-08-06T00:55:44;98676.94;;;16.03;77.94
76594;BME280;65482;50.240;14.302;2023-08-06T00:58:10;98676.34;;;16.01;77.84
76594;BME280;65482;50.240;14.302;2023-08-06T01:00:36;98674.34;;;15.96;78.03
76594;BME280;65482;50.240;14.302;2023-08-06T01:03:03;98666.75;;;16.00;78.00
76594;BME280;65482;50.240;14.302;2023-08-06T01:05:29;98660.00;;;15.97;78.01
76594;BME280;65482;50.240;14.302;2023-08-06T01:08:19;98660.06;;;15.90;78.39
76594;BME280;65482;50.240;14.302;2023-08-06T01:13:46;98656.88;;;15.82;78.20
76594;BME280;65482;50.240;14.302;2023-08-06T01:16:19;98660.72;;;15.86;78.20
76594;BME280;65482;50.240;14.302;2023-08-06T01:18:47;98656.22;;;15.86;77.93
76594;BME280;65482;50.240;14.302;2023-08-06T01:21:18;98655.41;;;15.86;78.14
76594;BME280;65482;50.240;14.302;2023-08-06T01:23:44;98652.97;;;15.84;78.15
76594;BME280;65482;50.240;14.302;2023-08-06T01:26:27;98656.63;;;15.83;78.57
76594;BME280;65482;50.240;14.302;2023-08-06T01:29:07;98653.75;;;15.85;78.50
76594;BME280;65482;50.240;14.302;2023-08-06T01:31:37;98656.41;;;15.85;78.75
76594;BME280;65482;50.240;14.302;2023-08-06T01:34:05;98649.69;;;15.82;78.56
76594;BME280;65482;50.240;14.302;2023-08-06T01:36:32;98639.28;;;15.81;78.77
76594;BME280;65482;50.240;14.302;2023-08-06T01:38:57;98637.41;;;15.81;78.80
76594;BME280;65482;50.240;14.302;2023-08-06T01:41:23;98636.41;;;15.82;78.66
76594;BME280;65482;50.240;14.302;2023-08-06T01:43:48;98631.94;;;15.76;78.46
76594;BME280;65482;50.240;14.302;2023-08-06T01:46:14;98631.75;;;15.78;78.50
76594;BME280;65482;50.240;14.302;2023-08-06T01:48:40;98634.41;;;15.78;78.87
76594;BME280;65482;50.240;14.302;2023-08-06T01:51:05;98630.91;;;15.77;78.54
76594;BME280;65482;50.240;14.302;2023-08-06T01:53:31;98624.78;;;15.77;78.44
76594;BME280;65482;50.240;14.302;2023-08-06T01:55:57;98623.53;;;15.79;78.43
76594;BME280;65482;50.240;14.302;2023-08-06T01:58:23;98624.97;;;15.82;78.14
76594;BME280;65482;50.240;14.302;2023-08-06T02:00:49;98629.69;;;15.80;78.08
76594;BME280;65482;50.240;14.302;2023-08-06T02:03:14;98629.69;;;15.80;78.20
76594;BME280;65482;50.240;14.302;2023-08-06T02:05:40;98623.78;;;15.78;78.10
76594;BME280;65482;50.240;14.302;2023-08-06T02:08:06;98621.31;;;15.76;78.33
76594;BME280;65482;50.240;14.302;2023-08-06T02:10:31;98618.66;;;15.76;78.47
76594;BME280;65482;50.240;14.302;2023-08-06T02:12:57;98628.06;;;15.72;78.68
76594;BME280;65482;50.240;14.302;2023-08-06T02:15:23;98629.88;;;15.71;78.45
76594;BME280;65482;50.240;14.302;2023-08-06T02:17:48;98628.06;;;15.72;78.29
76594;BME280;65482;50.240;14.302;2023-08-06T02:20:14;98641.34;;;15.72;78.56
76594;BME280;65482;50.240;14.302;2023-08-06T02:22:39;98630.53;;;15.74;78.81
76594;BME280;65482;50.240;14.302;2023-08-06T02:25:05;98636.88;;;15.73;78.56
76594;BME280;65482;50.240;14.302;2023-08-06T02:27:30;98635.03;;;15.73;78.79
76594;BME280;65482;50.240;14.302;2023-08-06T02:29:56;98644.66;;;15.74;78.89
76594;BME280;65482;50.240;14.302;2023-08-06T02:32:21;98637.28;;;15.76;78.65
76594;BME280;65482;50.240;14.302;2023-08-06T02:34:47;98629.50;;;15.75;78.92
76594;BME280;65482;50.240;14.302;2023-08-06T02:37:13;98623.75;;;15.71;78.92
76594;BME280;65482;50.240;14.302;2023-08-06T02:39:38;98622.16;;;15.70;78.75
76594;BME280;65482;50.240;14.302;2023-08-06T02:42:06;98617.44;;;15.72;78.62
76594;BME280;65482;50.240;14.302;2023-08-06T02:44:33;98616.84;;;15.70;78.74
76594;BME280;65482;50.240;14.302;2023-08-06T02:46:59;98604.97;;;15.73;78.74
76594;BME280;65482;50.240;14.302;2023-08-06T02:49:25;98602.91;;;15.75;78.74
76594;BME280;65482;50.240;14.302;2023-08-06T02:51:51;98595.16;;;15.73;78.71
76594;BME280;65482;50.240;14.302;2023-08-06T02:54:20;98592.28;;;15.75;78.61
76594;BME280;65482;50.240;14.302;2023-08-06T02:56:46;98589.41;;;15.76;78.78
76594;BME280;65482;50.240;14.302;2023-08-06T02:59:12;98588.38;;;15.77;78.59
76594;BME280;65482;50.240;14.302;2023-08-06T03:01:38;98588.97;;;15.79;78.51
76594;BME280;65482;50.240;14.302;2023-08-06T03:04:04;98588.38;;;15.77;78.55
76594;BME280;65482;50.240;14.302;2023-08-06T03:06:29;98589.19;;;15.78;79.28
76594;BME280;65482;50.240;14.302;2023-08-06T03:08:55;98584.31;;;15.75;78.77
76594;BME280;65482;50.240;14.302;2023-08-06T03:11:20;98583.72;;;15.73;79.34
76594;BME280;65482;50.240;14.302;2023-08-06T03:13:47;98586.31;;;15.79;78.90
76594;BME280;65482;50.240;14.302;2023-08-06T03:16:13;98582.84;;;15.79;79.09
76594;BME280;65482;50.240;14.302;2023-08-06T03:18:39;98582.66;;;15.74;79.14
76594;BME280;65482;50.240;14.302;2023-08-06T03:21:04;98584.69;;;15.78;78.83
76594;BME280;65482;50.240;14.302;2023-08-06T03:23:30;98580.19;;;15.79;79.05
76594;BME280;65482;50.240;14.302;2023-08-06T03:25:55;98577.69;;;15.84;79.02
76594;BME280;65482;50.240;14.302;2023-08-06T03:28:21;98569.13;;;15.82;78.88
76594;BME280;65482;50.240;14.302;2023-08-06T03:30:47;98563.81;;;15.82;79.11
76594;BME280;65482;50.240;14.302;2023-08-06T03:33:13;98562.56;;;15.84;78.85
76594;BME280;65482;50.240;14.302;2023-08-06T03:35:39;98567.66;;;15.86;78.91
76594;BME280;65482;50.240;14.302;2023-08-06T03:38:05;98569.28;;;15.87;78.93
76594;BME280;65482;50.240;14.302;2023-08-06T03:40:30;98563.94;;;15.87;78.67
76594;BME280;65482;50.240;14.302;2023-08-06T03:42:56;98561.28;;;15.87;78.89
76594;BME280;65482;50.240;14.302;2023-08-06T03:45:21;98556.47;;;15.77;78.54
76594;BME280;65482;50.240;14.302;2023-08-06T03:47:47;98552.13;;;15.83;78.82
76594;BME280;65482;50.240;14.302;2023-08-06T03:50:12;98560.69;;;15.85;78.60
76594;BME280;65482;50.240;14.302;2023-08-06T03:52:38;98554.56;;;15.84;78.44
76594;BME280;65482;50.240;14.302;2023-08-06T03:55:04;98549.25;;;15.84;78.46
76594;BME280;65482;50.240;14.302;2023-08-06T03:57:29;98541.88;;;15.86;78.34
76594;BME280;65482;50.240;14.302;2023-08-06T03:59:55;98539.22;;;15.86;77.99
76594;BME280;65482;50.240;14.302;2023-08-06T04:02:20;98539.00;;;15.88;78.15
76594;BME280;65482;50.240;14.302;2023-08-06T04:04:46;98529.97;;;15.89;78.01
76594;BME280;65482;50.240;14.302;2023-08-06T04:07:11;98526.50;;;15.88;77.72
76594;BME280;65482;50.240;14.302;2023-08-06T04:10:03;98523.47;;;15.85;77.72
76594;BME280;65482;50.240;14.302;2023-08-06T04:12:29;98525.31;;;15.84;77.63
76594;BME280;65482;50.240;14.302;2023-08-06T04:14:57;98520.00;;;15.84;77.69
76594;BME280;65482;50.240;14.302;2023-08-06T04:17:24;98520.22;;;15.83;77.73
76594;BME280;65482;50.240;14.302;2023-08-06T04:19:54;98526.59;;;15.82;77.82
76594;BME280;65482;50.240;14.302;2023-08-06T04:22:21;98518.81;;;15.80;77.99
76594;BME280;65482;50.240;14.302;2023-08-06T04:24:47;98518.59;;;15.82;78.12
76594;BME280;65482;50.240;14.302;2023-08-06T04:27:14;98520.00;;;15.84;77.72
76594;BME280;65482;50.240;14.302;2023-08-06T04:29:39;98510.38;;;15.83;77.82
76594;BME280;65482;50.240;14.302;2023-08-06T04:32:07;98496.06;;;15.84;77.96
76594;BME280;65482;50.240;14.302;2023-08-06T04:34:34;98497.69;;;15.85;78.14
76594;BME280;65482;50.240;14.302;2023-08-06T04:37:00;98495.25;;;15.84;78.18
76594;BME280;65482;50.240;14.302;2023-08-06T04:39:26;98498.34;;;15.81;78.23
76594;BME280;65482;50.240;14.302;2023-08-06T04:41:52;98502.41;;;15.83;77.88
76594;BME280;65482;50.240;14.302;2023-08-06T04:44:17;98503.06;;;15.79;78.58
76594;BME280;65482;50.240;14.302;2023-08-06T04:46:43;98499.81;;;15.77;78.94
76594;BME280;65482;50.240;14.302;2023-08-06T04:49:08;98500.41;;;15.79;78.97
76594;BME280;65482;50.240;14.302;2023-08-06T04:51:34;98496.75;;;15.80;79.21
76594;BME280;65482;50.240;14.302;2023-08-06T04:53:59;98490.53;;;15.86;78.94
76594;BME280;65482;50.240;14.302;2023-08-06T04:56:25;98481.59;;;15.80;79.08
76594;BME280;65482;50.240;14.302;2023-08-06T04:58:51;98478.44;;;15.90;79.05
76594;BME280;65482;50.240;14.302;2023-08-06T05:01:16;98483.75;;;15.90;79.31
76594;BME280;65482;50.240;14.302;2023-08-06T05:03:42;98479.44;;;15.89;79.20
76594;BME280;65482;50.240;14.302;2023-08-06T05:06:08;98475.31;;;15.75;79.78
76594;BME280;65482;50.240;14.302;2023-08-06T05:08:33;98476.78;;;15.89;79.38
76594;BME280;65482;50.240;14.302;2023-08-06T05:10:59;98467.88;;;16.02;78.97
76594;BME280;65482;50.240;14.302;2023-08-06T05:13:24;98469.19;;;15.93;78.96
76594;BME280;65482;50.240;14.302;2023-08-06T05:15:52;98466.53;;;15.93;79.16
76594;BME280;65482;50.240;14.302;2023-08-06T05:18:18;98464.97;;;16.03;78.55
76594;BME280;65482;50.240;14.302;2023-08-06T05:20:44;98466.03;;;16.02;78.78
76594;BME280;65482;50.240;14.302;2023-08-06T05:23:10;98473.69;;;15.92;79.18
76594;BME280;65482;50.240;14.302;2023-08-06T05:25:36;98471.63;;;15.94;79.17
76594;BME280;65482;50.240;14.302;2023-08-06T05:28:02;98475.91;;;15.95;79.20
76594;BME280;65482;50.240;14.302;2023-08-06T05:30:28;98470.16;;;15.98;79.18
76594;BME280;65482;50.240;14.302;2023-08-06T05:32:53;98470.53;;;16.02;79.04
76594;BME280;65482;50.240;14.302;2023-08-06T05:35:21;98468.91;;;16.01;79.23
76594;BME280;65482;50.240;14.302;2023-08-06T05:37:47;98466.41;;;16.06;78.96
76594;BME280;65482;50.240;14.302;2023-08-06T05:40:13;98467.63;;;16.03;79.02
76594;BME280;65482;50.240;14.302;2023-08-06T05:42:40;98469.56;;;16.15;78.56
76594;BME280;65482;50.240;14.302;2023-08-06T05:45:06;98468.47;;;16.22;78.05
76594;BME280;65482;50.240;14.302;2023-08-06T05:47:32;98468.97;;;16.31;78.00
76594;BME280;65482;50.240;14.302;2023-08-06T05:49:57;98462.16;;;16.35;77.76
76594;BME280;65482;50.240;14.302;2023-08-06T05:52:23;98458.63;;;16.41;77.65
76594;BME280;65482;50.240;14.302;2023-08-06T05:54:49;98453.53;;;16.40;77.38
76594;BME280;65482;50.240;14.302;2023-08-06T05:57:14;98458.25;;;16.38;76.58
76594;BME280;65482;50.240;14.302;2023-08-06T05:59:40;98457.56;;;16.42;76.72
76594;BME280;65482;50.240;14.302;2023-08-06T06:02:06;98459.81;;;16.45;76.85
76594;BME280;65482;50.240;14.302;2023-08-06T06:04:32;98456.56;;;16.43;76.98
76594;BME280;65482;50.240;14.302;2023-08-06T06:06:57;98470.88;;;16.42;76.61
76594;BME280;65482;50.240;14.302;2023-08-06T06:09:23;98455.41;;;16.51;76.24
76594;BME280;65482;50.240;14.302;2023-08-06T06:11:48;98454.59;;;16.50;76.56
76594;BME280;65482;50.240;14.302;2023-08-06T06:14:19;98452.91;;;16.56;76.06
76594;BME280;65482;50.240;14.302;2023-08-06T06:16:45;98450.97;;;16.63;76.03
76594;BME280;65482;50.240;14.302;2023-08-06T06:19:11;98447.03;;;16.66;75.90
76594;BME280;65482;50.240;14.302;2023-08-06T06:21:37;98444.97;;;16.68;76.10
76594;BME280;65482;50.240;14.302;2023-08-06T06:24:06;98449.38;;;16.74;75.98
76594;BME280;65482;50.240;14.302;2023-08-06T06:26:32;98441.97;;;16.76;75.64
76594;BME280;65482;50.240;14.302;2023-08-06T06:28:58;98453.78;;;16.80;75.79
76594;BME280;65482;50.240;14.302;2023-08-06T06:31:23;98450.13;;;16.81;75.42
76594;BME280;65482;50.240;14.302;2023-08-06T06:33:49;98447.38;;;16.88;74.88
76594;BME280;65482;50.240;14.302;2023-08-06T06:36:14;98449.13;;;16.94;74.52
76594;BME280;65482;50.240;14.302;2023-08-06T06:38:40;98448.31;;;16.94;74.47
76594;BME280;65482;50.240;14.302;2023-08-06T06:41:06;98446.09;;;16.90;74.27
76594;BME280;65482;50.240;14.302;2023-08-06T06:43:32;98455.56;;;16.86;74.39
76594;BME280;65482;50.240;14.302;2023-08-06T06:45:59;98455.84;;;16.97;74.59
76594;BME280;65482;50.240;14.302;2023-08-06T06:48:27;98449.38;;;17.04;74.55
76594;BME280;65482;50.240;14.302;2023-08-06T06:50:52;98442.91;;;17.12;74.01
76594;BME280;65482;50.240;14.302;2023-08-06T06:53:18;98447.31;;;17.18;73.67
76594;BME280;65482;50.240;14.302;2023-08-06T06:55:43;98454.75;;;17.28;73.00
76594;BME280;65482;50.240;14.302;2023-08-06T06:58:10;98456.13;;;17.30;72.85
76594;BME280;65482;50.240;14.302;2023-08-06T07:00:36;98454.53;;;17.41;73.22
76594;BME280;65482;50.240;14.302;2023-08-06T07:03:03;98451.97;;;17.46;73.59
76594;BME280;65482;50.240;14.302;2023-08-06T07:05:28;98452.69;;;17.65;73.00
76594;BME280;65482;50.240;14.302;2023-08-06T07:07:54;98450.25;;;17.76;72.80
76594;BME280;65482;50.240;14.302;2023-08-06T07:10:20;98441.78;;;17.67;72.61
76594;BME280;65482;50.240;14.302;2023-08-06T07:12:45;98443.16;;;17.81;72.38
76594;BME280;65482;50.240;14.302;2023-08-06T07:15:11;98445.03;;;17.81;72.15
76594;BME280;65482;50.240;14.302;2023-08-06T07:17:37;98444.56;;;17.72;72.22
76594;BME280;65482;50.240;14.302;2023-08-06T07:20:03;98440.06;;;17.84;71.97
76594;BME280;65482;50.240;14.302;2023-08-06T07:22:29;98443.84;;;18.00;71.92
76594;BME280;65482;50.240;14.302;2023-08-06T07:24:55;98441.28;;;18.17;71.09
76594;BME280;65482;50.240;14.302;2023-08-06T07:27:21;98438.97;;;18.21;70.57
76594;BME280;65482;50.240;14.302;2023-08-06T07:29:46;98445.69;;;18.23;71.18
76594;BME280;65482;50.240;14.302;2023-08-06T07:32:13;98435.56;;;18.25;71.23
76594;BME280;65482;50.240;14.302;2023-08-06T07:34:39;98436.94;;;18.28;71.23
76594;BME280;65482;50.240;14.302;2023-08-06T07:37:05;98437.88;;;18.34;71.13
76594;BME280;65482;50.240;14.302;2023-08-06T07:39:31;98444.00;;;18.34;71.16
76594;BME280;65482;50.240;14.302;2023-08-06T07:41:56;98440.78;;;18.32;70.35
76594;BME280;65482;50.240;14.302;2023-08-06T07:44:22;98437.66;;;18.23;70.30
76594;BME280;65482;50.240;14.302;2023-08-06T07:46:47;98436.53;;;18.19;70.25
76594;BME280;65482;50.240;14.302;2023-08-06T07:49:13;98440.72;;;18.15;70.77
76594;BME280;65482;50.240;14.302;2023-08-06T07:51:38;98434.00;;;18.13;71.00
76594;BME280;65482;50.240;14.302;2023-08-06T07:54:05;98431.56;;;18.11;71.46
76594;BME280;65482;50.240;14.302;2023-08-06T07:56:30;98425.84;;;18.19;71.28
76594;BME280;65482;50.240;14.302;2023-08-06T07:58:56;98421.09;;;18.21;70.79
76594;BME280;65482;50.240;14.302;2023-08-06T08:01:22;98423.28;;;18.24;70.45
76594;BME280;65482;50.240;14.302;2023-08-06T08:03:47;98418.88;;;18.18;70.43
76594;BME280;65482;50.240;14.302;2023-08-06T08:06:13;98425.38;;;18.22;69.85
76594;BME280;65482;50.240;14.302;2023-08-06T08:08:38;98420.06;;;18.22;69.40
76594;BME280;65482;50.240;14.302;2023-08-06T08:11:05;98410.41;;;18.21;69.50
76594;BME280;65482;50.240;14.302;2023-08-06T08:13:30;98413.31;;;18.20;69.26
76594;BME280;65482;50.240;14.302;2023-08-06T08:16:01;98408.44;;;18.28;68.75
76594;BME280;65482;50.240;14.302;2023-08-06T08:18:26;98405.50;;;18.30;69.04
76594;BME280;65482;50.240;14.302;2023-08-06T08:20:52;98406.91;;;18.33;69.05
76594;BME280;65482;50.240;14.302;2023-08-06T08:23:18;98406.75;;;18.39;68.92
76594;BME280;65482;50.240;14.302;2023-08-06T08:25:43;98403.63;;;18.42;68.86
76594;BME280;65482;50.240;14.302;2023-08-06T08:28:09;98404.66;;;18.41;69.29
76594;BME280;65482;50.240;14.302;2023-08-06T08:30:35;98405.91;;;18.51;69.16
76594;BME280;65482;50.240;14.302;2023-08-06T08:33:00;98401.94;;;18.53;69.37
76594;BME280;65482;50.240;14.302;2023-08-06T08:35:26;98404.50;;;18.48;68.80
76594;BME280;65482;50.240;14.302;2023-08-06T08:37:51;98399.41;;;18.46;68.56
76594;BME280;65482;50.240;14.302;2023-08-06T08:40:17;98404.72;;;18.58;68.31
76594;BME280;65482;50.240;14.302;2023-08-06T08:42:43;98402.66;;;18.48;67.18
76594;BME280;65482;50.240;14.302;2023-08-06T08:45:15;98408.22;;;18.47;67.03
76594;BME280;65482;50.240;14.302;2023-08-06T08:47:41;98403.81;;;18.53;66.81
76594;BME280;65482;50.240;14.302;2023-08-06T08:50:13;98396.81;;;18.52;66.37
76594;BME280;65482;50.240;14.302;2023-08-06T08:52:39;98396.94;;;18.57;66.84
76594;BME280;65482;50.240;14.302;2023-08-06T08:55:08;98393.91;;;18.53;66.76
76594;BME280;65482;50.240;14.302;2023-08-06T08:57:34;98400.28;;;18.52;66.62
76594;BME280;65482;50.240;14.302;2023-08-06T09:00:00;98393.91;;;18.53;66.75
76594;BME280;65482;50.240;14.302;2023-08-06T09:02:28;98395.78;;;18.53;66.40
76594;BME280;65482;50.240;14.302;2023-08-06T09:04:57;98390.44;;;18.53;66.63
76594;BME280;65482;50.240;14.302;2023-08-06T09:07:25;98391.25;;;18.53;67.15
76594;BME280;65482;50.240;14.302;2023-08-06T09:09:52;98393.19;;;18.58;66.80
76594;BME280;65482;50.240;14.302;2023-08-06T09:12:18;98392.81;;;18.66;67.22
76594;BME280;65482;50.240;14.302;2023-08-06T09:14:44;98388.53;;;18.65;66.60
76594;BME280;65482;50.240;14.302;2023-08-06T09:17:09;98390.00;;;18.73;66.51
76594;BME280;65482;50.240;14.302;2023-08-06T09:19:41;98383.34;;;18.75;65.83
76594;BME280;65482;50.240;14.302;2023-08-06T09:22:11;98382.66;;;18.80;65.38
76594;BME280;65482;50.240;14.302;2023-08-06T09:24:40;98370.19;;;18.85;65.34
76594;BME280;65482;50.240;14.302;2023-08-06T09:27:14;98378.31;;;18.91;65.04
76594;BME280;65482;50.240;14.302;2023-08-06T09:29:41;98376.09;;;18.87;65.80
76594;BME280;65482;50.240;14.302;2023-08-06T09:32:07;98378.53;;;18.89;65.95
76594;BME280;65482;50.240;14.302;2023-08-06T09:34:33;98376.78;;;18.95;65.31
76594;BME280;65482;50.240;14.302;2023-08-06T09:36:58;98372.47;;;18.94;65.13
76594;BME280;65482;50.240;14.302;2023-08-06T09:39:28;98376.28;;;18.98;64.90
76594;BME280;65482;50.240;14.302;2023-08-06T09:41:56;98377.00;;;18.93;64.68
76594;BME280;65482;50.240;14.302;2023-08-06T09:44:22;98375.31;;;19.04;65.03
76594;BME280;65482;50.240;14.302;2023-08-06T09:46:52;98374.34;;;18.93;64.66
76594;BME280;65482;50.240;14.302;2023-08-06T09:49:19;98365.50;;;18.93;64.86
76594;BME280;65482;50.240;14.302;2023-08-06T09:51:46;98368.44;;;19.08;64.52
76594;BME280;65482;50.240;14.302;2023-08-06T09:54:12;98375.16;;;19.11;64.01
76594;BME280;65482;50.240;14.302;2023-08-06T09:56:42;98365.66;;;19.20;64.74
76594;BME280;65482;50.240;14.302;2023-08-06T09:59:07;98366.25;;;19.22;64.29
76594;BME280;65482;50.240;14.302;2023-08-06T10:01:34;98360.53;;;19.35;64.22
76594;BME280;65482;50.240;14.302;2023-08-06T10:04:03;98364.44;;;19.27;63.32
76594;BME280;65482;50.240;14.302;2023-08-06T10:06:28;98353.06;;;19.37;63.15
76594;BME280;65482;50.240;14.302;2023-08-06T10:08:55;98352.69;;;19.28;62.97
76594;BME280;65482;50.240;14.302;2023-08-06T10:11:24;98347.97;;;19.36;62.78
76594;BME280;65482;50.240;14.302;2023-08-06T10:13:57;98349.41;;;19.43;63.27
76594;BME280;65482;50.240;14.302;2023-08-06T10:16:24;98349.31;;;19.55;62.00
76594;BME280;65482;50.240;14.302;2023-08-06T10:18:50;98346.19;;;19.63;62.48
76594;BME280;65482;50.240;14.302;2023-08-06T10:21:17;98348.63;;;19.65;62.21
76594;BME280;65482;50.240;14.302;2023-08-06T10:23:43;98343.53;;;19.63;62.24
76594;BME280;65482;50.240;14.302;2023-08-06T10:26:09;98353.06;;;19.54;61.99
76594;BME280;65482;50.240;14.302;2023-08-06T10:28:37;98345.28;;;19.53;62.33
76594;BME280;65482;50.240;14.302;2023-08-06T10:31:02;98346.16;;;19.58;62.84
76594;BME280;65482;50.240;14.302;2023-08-06T10:33:45;98347.88;;;19.47;63.29
76594;BME280;65482;50.240;14.302;2023-08-06T10:36:12;98346.13;;;19.36;63.00
76594;BME280;65482;50.240;14.302;2023-08-06T10:38:46;98333.81;;;19.35;62.20
76594;BME280;65482;50.240;14.302;2023-08-06T10:41:21;98327.72;;;19.40;62.09
76594;BME280;65482;50.240;14.302;2023-08-06T10:43:48;98323.50;;;19.44;61.91
76594;BME280;65482;50.240;14.302;2023-08-06T10:46:29;98328.59;;;19.45;62.59
76594;BME280;65482;50.240;14.302;2023-08-06T10:48:54;98326.00;;;19.51;62.17
76594;BME280;65482;50.240;14.302;2023-08-06T10:51:20;98328.94;;;19.71;61.54
76594;BME280;65482;50.240;14.302;2023-08-06T10:53:47;98330.94;;;19.81;61.24
76594;BME280;65482;50.240;14.302;2023-08-06T10:56:14;98323.34;;;19.95;60.39
76594;BME280;65482;50.240;14.302;2023-08-06T10:58:41;98320.09;;;19.93;59.15
76594;BME280;65482;50.240;14.302;2023-08-06T11:01:06;98321.88;;;19.82;60.12
76594;BME280;65482;50.240;14.302;2023-08-06T11:03:35;98327.22;;;19.82;59.62
76594;BME280;65482;50.240;14.302;2023-08-06T11:06:01;98326.44;;;19.64;59.82
76594;BME280;65482;50.240;14.302;2023-08-06T11:08:33;98326.06;;;19.56;58.90
76594;BME280;65482;50.240;14.302;2023-08-06T11:11:12;98328.09;;;19.48;59.37
76594;BME280;65482;50.240;14.302;2023-08-06T11:13:48;98334.38;;;19.59;59.30
76594;BME280;65482;50.240;14.302;2023-08-06T11:16:15;98325.81;;;19.57;59.30
76594;BME280;65482;50.240;14.302;2023-08-06T11:18:42;98330.16;;;19.63;58.96
76594;BME280;65482;50.240;14.302;2023-08-06T11:21:08;98327.56;;;19.68;58.53
76594;BME280;65482;50.240;14.302;2023-08-06T11:23:34;98321.34;;;19.63;58.58
76594;BME280;65482;50.240;14.302;2023-08-06T11:26:00;98317.22;;;19.55;58.74
76594;BME280;65482;50.240;14.302;2023-08-06T11:28:26;98326.06;;;19.56;59.37
76594;BME280;65482;50.240;14.302;2023-08-06T11:30:52;98323.44;;;19.61;59.35
76594;BME280;65482;50.240;14.302;2023-08-06T11:33:24;98324.44;;;19.55;60.12
76594;BME280;65482;50.240;14.302;2023-08-06T11:35:58;98324.25;;;19.61;60.15
76594;BME280;65482;50.240;14.302;2023-08-06T11:38:28;98327.38;;;19.75;60.54
76594;BME280;65482;50.240;14.302;2023-08-06T11:40:54;98322.03;;;19.75;59.75
76594;BME280;65482;50.240;14.302;2023-08-06T11:43:21;98318.91;;;19.83;60.09
76594;BME280;65482;50.240;14.302;2023-08-06T11:45:48;98323.31;;;19.90;59.98
76594;BME280;65482;50.240;14.302;2023-08-06T11:48:14;98318.88;;;20.00;59.69
76594;BME280;65482;50.240;14.302;2023-08-06T11:50:40;98313.13;;;20.14;59.68
76594;BME280;65482;50.240;14.302;2023-08-06T11:53:06;98312.34;;;20.18;59.59
76594;BME280;65482;50.240;14.302;2023-08-06T11:55:31;98309.63;;;20.13;59.33
76594;BME280;65482;50.240;14.302;2023-08-06T11:57:58;98313.22;;;20.24;58.62
76594;BME280;65482;50.240;14.302;2023-08-06T12:00:25;98307.63;;;20.25;58.56
76594;BME280;65482;50.240;14.302;2023-08-06T12:02:51;98310.56;;;20.29;58.73
76594;BME280;65482;50.240;14.302;2023-08-06T12:05:29;98308.28;;;20.38;58.45
76594;BME280;65482;50.240;14.302;2023-08-06T12:07:57;98305.59;;;20.38;58.11
76594;BME280;65482;50.240;14.302;2023-08-06T12:10:27;98302.75;;;20.50;57.27
76594;BME280;65482;50.240;14.302;2023-08-06T12:12:54;98299.00;;;20.51;56.69
76594;BME280;65482;50.240;14.302;2023-08-06T12:15:20;98307.59;;;20.53;56.18
76594;BME280;65482;50.240;14.302;2023-08-06T12:17:46;98302.78;;;20.55;56.39
76594;BME280;65482;50.240;14.302;2023-08-06T12:20:11;98304.16;;;20.57;56.37
76594;BME280;65482;50.240;14.302;2023-08-06T12:22:38;98302.69;;;20.72;56.25
76594;BME280;65482;50.240;14.302;2023-08-06T12:25:09;98296.72;;;20.64;55.75
76594;BME280;65482;50.240;14.302;2023-08-06T12:27:38;98296.72;;;20.59;56.35
76594;BME280;65482;50.240;14.302;2023-08-06T12:30:05;98291.91;;;20.61;56.47
76594;BME280;65482;50.240;14.302;2023-08-06T12:32:31;98287.13;;;20.69;56.14
76594;BME280;65482;50.240;14.302;2023-08-06T12:34:56;98290.91;;;20.73;56.20
76594;BME280;65482;50.240;14.302;2023-08-06T12:37:23;98292.34;;;20.85;56.15
76594;BME280;65482;50.240;14.302;2023-08-06T12:39:48;98296.09;;;20.84;55.84
76594;BME280;65482;50.240;14.302;2023-08-06T12:42:15;98291.50;;;20.80;55.57
76594;BME280;65482;50.240;14.302;2023-08-06T12:44:41;98289.38;;;20.82;54.84
76594;BME280;65482;50.240;14.302;2023-08-06T12:47:07;98289.31;;;20.77;55.13
76594;BME280;65482;50.240;14.302;2023-08-06T12:49:33;98281.88;;;20.84;54.50
76594;BME280;65482;50.240;14.302;2023-08-06T12:51:59;98296.97;;;20.95;54.08